Архив погоды на Мысе Терпения

Метеограмма Мыс Терпения
Среда, 17 Октября
Время местн. Темп Ветер Видим Явления Облачность нижн/средн/верх Атм. давл. Влжн Точка росы ВНГО R Сост. почвы Tg s
Напр Скр Прв ур.ст ур.м изм
19:00 +6.9° З,С-З 9 18 20 км - незначительная облачность 754 754 +1.3 68% +1.5° 1 км 0 - - -
16:00 +8° З,С-З 12 17 20 км - переменная облачность 752 753 +0.5 65% +1.8° 1 км - - - -
13:00 +7.3° З,С-З 10 13 20 км - переменная облачность 752 752 +0.5 73% +2.7° 1 км - - - -
10:00 +6.3° З 4 6 20 км - облачно с прояснениями 751 752 -0.4 81% +3.2° 600 м - - - -
07:00 +5.3° Ю 4 14 20 км - переменная облачность 752 752 -0.8 73% +0.9° 600 м 4 Влажная (без луж) +2° -
04:00 - +5.9° З 1 2 - - - 752 753 -1.5 78% +2.3° - - - - -
01:00 - +7.3° Ю-З 2 11 - - - 754 754 -1.7 77% +3.6° - - - - -
Вторник, 16 Октября
Время местн. Темп Ветер Видим Явления Облачность нижн/средн/верх Атм. давл. Влжн Точка росы ВНГО R Сост. почвы Tg s
Напр Скр Прв ур.ст ур.м изм
22:00 +7.8° Ю 4 5 20 км - переменная облачность 755 756 -0.3 74% +3.4° - - - - -
19:00 +8.7° Ю-З 8 13 20 км - незначительная облачность 756 756 0 69% +3.3° более 2.5 км 3 - - -
16:00 +9.5° Ю,Ю-З 8 10 20 км - переменная облачность 756 756 -0.2 78% +5.9° 1.5 км - - - -
13:00 +10.3° Ю-З 9 13 20 км - переменная облачность 756 756 -0.8 72% +5.4° 1 км - - - -
10:00 +9.7° Ю 5 8 20 км небо без изменений {дождь} облачно 757 757 -0.7 95% +9° - - - - -
07:00 +10° Ю 8 12 10 км слабый непрерывный дождь облачно 757 758 -1.4 95% +9.2° более 2.5 км 5 Влажная (без луж) +9° -
04:00 - +9.9° Ю,Ю-В 8 11 - - - 759 759 -1.3 93% +8.8° - - - - -
01:00 - +10.1° Ю 10 14 - - - 760 761 -0.8 95% +9.3° - - - - -
Понедельник, 15 Октября
Время местн. Темп Ветер Видим Явления Облачность нижн/средн/верх Атм. давл. Влжн Точка росы ВНГО R Сост. почвы Tg s
Напр Скр Прв ур.ст ур.м изм
22:00 +10.1° Ю 7 9 20 км - облачно 761 761 -0.5 95% +9.3° - - - - -
19:00 +9.9° Ю 5 9 20 км - облачно 761 762 -0.1 96% +9.3° 1 км 0 - - -
16:00 +10.8° Ю 5 8 20 км - облачно 761 762 -0.8 92% +9.6° 1 км - - - -
13:00 +11.5° Ю 5 8 20 км - облачно 762 763 -0.7 89% +9.8° 1 км - - - -
10:00 +10.8° Ю 4 6 20 км - облачно 763 763 +0.1 89% +9.1° 1 км - - - -
07:00 +9.2° Ю 5 7 20 км - облачно 763 764 +0.1 94% +8.3° более 2.5 км 0 Влажная (без луж) +7° -
04:00 - +9.5° Ю,Ю-З 5 6 - - - 763 763 -0.3 95% +8.8° - - - - -
01:00 - +9.6° Ю,Ю-З 6 7 - - - 763 764 -0.2 93% +8.6° - - - - -
Воскресенье, 14 Октября
Время местн. Темп Ветер Видим Явления Облачность нижн/средн/верх Атм. давл. Влжн Точка росы ВНГО R Сост. почвы Tg s
Напр Скр Прв ур.ст ур.м изм
22:00 +9.9° Ю,Ю-З 7 10 20 км - ясно 763 764 +0.1 92% +8.7° более 2.5 км - - - -
19:00 +10.1° Ю,Ю-З 7 8 20 км - ясно 763 764 -0.4 93% +9.1° более 2.5 км 0 - - -
16:00 +10.8° Ю 7 9 20 км - незначительная облачность 763 764 -0.4 88% +8.9° более 2.5 км - - - -